Time;durP1;ratioP1;P1;durP2;ratioP2;P2;SDS_P1;SDS_P2;PMS_P1;PMS_P2;Temp;Humidity;BMP_temperature;BMP_pressure;BME280_temperature;BME280_humidity;BME280_pressure;Samples;Min_cycle;Max_cycle;Signal;HPM_P1;HPM_P2
2021/11/25 00:00:14;;;;;;;42.05;21.85;;;;;;;6.18;88.05;101521.66;5072407;28;20059;-66
2021/11/25 00:02:39;;;;;;;41.00;21.20;;;;;;;6.20;87.70;101522.50;5073208;28;20074;-66
2021/11/25 00:05:06;;;;;;;45.10;21.90;;;;;;;6.22;88.06;101514.59;5071425;28;20051;-66
2021/11/25 00:07:31;;;;;;;39.40;21.08;;;;;;;6.22;87.81;101509.31;5072208;28;20021;-66
2021/11/25 00:09:57;;;;;;;41.72;20.80;;;;;;;6.19;88.06;101509.34;5071945;28;20101;-66
2021/11/25 00:12:22;;;;;;;42.70;21.15;;;;;;;6.20;87.23;101514.63;5073157;28;20056;-66
2021/11/25 00:14:48;;;;;;;42.42;20.98;;;;;;;6.19;86.60;101507.63;5072157;28;20107;-66
2021/11/25 00:17:13;;;;;;;38.20;20.25;;;;;;;6.18;86.77;101497.97;5071428;28;20024;-65
2021/11/25 00:19:38;;;;;;;44.45;20.38;;;;;;;6.18;86.92;101502.38;5071309;28;20495;-66
2021/11/25 00:22:04;;;;;;;40.05;20.13;;;;;;;6.18;85.41;101492.72;5057416;28;20052;-67
2021/11/25 00:24:29;;;;;;;37.72;20.30;;;;;;;6.20;85.12;101495.31;5076970;28;20029;-66
2021/11/25 00:26:55;;;;;;;40.42;20.42;;;;;;;6.18;84.54;101486.59;5075732;28;20036;-67
2021/11/25 00:29:20;;;;;;;37.28;19.52;;;;;;;6.19;83.89;101493.56;5076206;28;20424;-66
2021/11/25 00:31:46;;;;;;;37.28;19.55;;;;;;;6.15;84.27;101487.53;5075550;28;20036;-66
2021/11/25 00:34:11;;;;;;;38.13;18.98;;;;;;;6.15;84.21;101495.41;5083633;28;20788;-66
2021/11/25 00:36:37;;;;;;;40.03;20.13;;;;;;;6.17;83.54;101492.75;5095934;28;20048;-67
2021/11/25 00:39:02;;;;;;;40.13;21.35;;;;;;;6.14;83.99;101488.41;5077558;28;20111;-66
2021/11/25 00:41:28;;;;;;;42.30;21.17;;;;;;;6.15;84.53;101486.63;5075482;28;20111;-66
2021/11/25 00:43:53;;;;;;;38.95;20.52;;;;;;;6.13;84.08;101480.56;5075997;28;20020;-67
2021/11/25 00:46:19;;;;;;;44.08;20.83;;;;;;;6.11;83.37;101477.91;5090540;28;20056;-66
2021/11/25 00:48:45;;;;;;;36.85;20.00;;;;;;;6.12;83.09;101478.81;5074983;28;20024;-64
2021/11/25 00:51:10;;;;;;;38.97;18.73;;;;;;;6.10;81.97;101475.31;5055334;28;20032;-66
2021/11/25 00:53:36;;;;;;;37.80;18.70;;;;;;;6.10;81.71;101480.59;5069839;28;20025;-65
2021/11/25 00:56:02;;;;;;;38.45;20.08;;;;;;;6.12;80.99;101481.44;5076452;28;20427;-66
2021/11/25 00:58:27;;;;;;;35.10;18.30;;;;;;;6.14;81.65;101474.38;5075085;28;20031;-66
2021/11/25 01:00:53;;;;;;;39.20;18.90;;;;;;;6.16;81.12;101480.50;5075018;28;20033;-65
2021/11/25 01:03:19;;;;;;;38.72;18.70;;;;;;;6.14;80.63;101471.75;5075290;28;20028;-65
2021/11/25 01:05:45;;;;;;;37.67;19.98;;;;;;;6.15;81.03;101478.75;5080139;28;20024;-66
2021/11/25 01:08:12;;;;;;;36.85;19.05;;;;;;;6.13;81.65;101476.16;5084166;28;20396;-65
2021/11/25 01:10:38;;;;;;;36.80;19.25;;;;;;;6.13;82.04;101480.56;5074735;28;20059;-65
2021/11/25 01:13:04;;;;;;;38.90;20.27;;;;;;;6.13;81.57;101470.03;5056672;28;20041;-66
2021/11/25 01:15:32;;;;;;;39.13;19.65;;;;;;;6.10;82.51;101462.19;5075118;28;20108;-65
2021/11/25 01:18:09;;;;;;;35.45;18.60;;;;;;;6.06;82.66;101466.59;5075192;28;20035;-66
2021/11/25 01:20:36;;;;;;;38.38;19.42;;;;;;;6.08;82.44;101464.84;5074741;28;20024;-65
2021/11/25 01:23:06;;;;;;;42.78;20.90;;;;;;;6.10;82.36;101464.81;5074825;28;20128;-65
2021/11/25 01:25:31;;;;;;;38.95;20.27;;;;;;;6.07;82.96;101466.63;5074582;28;20387;-67
2021/11/25 01:27:57;;;;;;;45.25;20.58;;;;;;;6.06;83.30;101469.25;5075899;28;20028;-68
2021/11/25 01:30:22;;;;;;;42.45;21.08;;;;;;;6.06;83.36;101467.50;5074810;28;20028;-65
2021/11/25 01:32:48;;;;;;;42.42;20.58;;;;;;;6.09;83.95;101466.59;5073679;28;20032;-64
2021/11/25 01:35:13;;;;;;;43.60;20.75;;;;;;;6.11;84.15;101466.56;5074647;28;20056;-66
2021/11/25 01:37:40;;;;;;;41.78;20.50;;;;;;;6.09;84.46;101463.94;5075507;28;20125;-66
2021/11/25 01:40:09;;;;;;;42.80;21.17;;;;;;;6.03;85.13;101464.91;5074801;28;20124;-65
2021/11/25 01:42:34;;;;;;;42.55;21.70;;;;;;;6.06;85.16;101464.88;5074189;28;20033;-66
2021/11/25 01:45:00;;;;;;;46.53;21.23;;;;;;;6.05;85.20;101465.75;5073909;28;20463;-66
2021/11/25 01:47:25;;;;;;;46.28;22.33;;;;;;;6.06;85.58;101454.34;5074062;28;20111;-66
2021/11/25 01:49:51;;;;;;;43.00;22.35;;;;;;;6.05;85.31;101462.28;5075998;28;20074;-64
2021/11/25 01:52:16;;;;;;;49.05;23.50;;;;;;;6.03;86.35;101456.16;5073874;28;20029;-67
2021/11/25 01:54:41;;;;;;;47.85;22.23;;;;;;;6.05;86.21;101460.50;5074471;28;20077;-66
2021/11/25 01:57:07;;;;;;;50.78;23.65;;;;;;;6.06;86.05;101449.09;5074003;28;20028;-65
2021/11/25 01:59:36;;;;;;;50.00;23.27;;;;;;;6.03;86.39;101451.75;5083481;28;20020;-66
2021/11/25 02:02:03;;;;;;;50.85;22.50;;;;;;;6.03;86.45;101429.88;5092858;28;20076;-66
2021/11/25 02:04:28;;;;;;;49.03;23.48;;;;;;;6.04;87.44;101436.88;5074145;28;20028;-65
2021/11/25 02:06:54;;;;;;;52.72;23.73;;;;;;;6.04;87.73;101434.25;5073778;28;20032;-65
2021/11/25 02:09:19;;;;;;;51.05;22.88;;;;;;;5.99;88.49;101425.56;5074855;28;20032;-66
2021/11/25 02:11:44;;;;;;;48.42;23.92;;;;;;;5.97;88.37;101428.19;5038787;28;20433;-66
2021/11/25 02:14:10;;;;;;;49.45;23.38;;;;;;;5.99;88.56;101429.03;5054263;28;20032;-66
2021/11/25 02:16:37;;;;;;;51.90;24.98;;;;;;;5.99;88.55;101431.66;5054038;28;20040;-66
2021/11/25 02:19:03;;;;;;;53.78;25.00;;;;;;;5.97;89.19;101420.31;5065156;28;20021;-66
2021/11/25 02:21:29;;;;;;;51.05;24.77;;;;;;;5.94;89.35;101422.97;5074529;28;20099;-66
2021/11/25 02:23:54;;;;;;;53.67;24.42;;;;;;;5.92;89.94;101419.50;5073625;28;20112;-66
2021/11/25 02:26:20;;;;;;;52.63;25.45;;;;;;;5.92;90.06;101411.63;5073438;28;20104;-65
2021/11/25 02:28:45;;;;;;;55.88;25.20;;;;;;;5.91;90.52;101421.25;5073782;28;20037;-66
2021/11/25 02:31:11;;;;;;;59.38;25.88;;;;;;;5.92;91.00;101416.88;5076920;28;20028;-64
2021/11/25 02:33:41;;;;;;;60.25;25.88;;;;;;;5.87;92.28;101416.94;5085088;28;20058;-64
2021/11/25 02:36:08;;;;;;;55.53;26.30;;;;;;;5.84;91.85;101409.09;5093718;28;20093;-65
2021/11/25 02:38:34;;;;;;;58.65;26.25;;;;;;;5.78;93.46;101398.69;5075723;28;20064;-63
2021/11/25 02:41:00;;;;;;;60.78;26.83;;;;;;;5.74;93.22;101399.59;5072964;28;20025;-62
2021/11/25 02:43:28;;;;;;;61.47;28.10;;;;;;;5.69;94.50;101406.69;5078922;28;20035;-64
2021/11/25 02:46:06;;;;;;;61.38;27.98;;;;;;;5.63;94.48;101399.78;5085221;28;20032;-64
2021/11/25 02:48:40;;;;;;;69.78;28.25;;;;;;;5.60;95.59;101401.59;5078918;28;20016;-65
2021/11/25 02:51:07;;;;;;;62.22;27.00;;;;;;;5.55;96.24;101392.03;5072944;28;20028;-63
2021/11/25 02:53:35;;;;;;;69.22;28.65;;;;;;;5.53;96.69;101385.06;5077430;28;20063;-64
2021/11/25 02:56:04;;;;;;;71.15;27.52;;;;;;;5.54;97.05;101384.19;5073004;28;20025;-64
2021/11/25 02:58:29;;;;;;;67.75;29.73;;;;;;;5.53;96.90;101387.69;5073065;28;20021;-65
2021/11/25 03:00:57;;;;;;;67.43;27.80;;;;;;;5.53;96.59;101385.91;5072936;28;20075;-64
2021/11/25 03:03:24;;;;;;;64.72;27.65;;;;;;;5.56;97.24;101387.63;5079409;28;20028;-61
2021/11/25 03:05:50;;;;;;;70.03;28.55;;;;;;;5.56;96.95;101387.63;5072923;28;20044;-64
2021/11/25 03:08:18;;;;;;;63.88;28.10;;;;;;;5.57;96.87;101386.75;5072626;28;20032;-64
2021/11/25 03:10:50;;;;;;;66.38;28.02;;;;;;;5.53;97.60;101379.81;5073081;28;20071;-61
2021/11/25 03:13:18;;;;;;;64.78;27.00;;;;;;;5.50;97.74;101377.22;5073707;28;20086;-64
2021/11/25 03:15:45;;;;;;;58.35;27.38;;;;;;;5.39;97.20;101375.59;5072587;28;20032;-63
2021/11/25 03:18:11;;;;;;;64.80;28.83;;;;;;;5.30;97.05;101374.91;5072535;28;20104;-63
2021/11/25 03:20:40;;;;;;;74.43;29.98;;;;;;;5.30;97.76;101375.75;5071867;28;20040;-64
2021/11/25 03:23:06;;;;;;;70.82;29.42;;;;;;;5.36;97.97;101366.94;5072348;28;20086;-63
2021/11/25 03:25:33;;;;;;;65.85;27.90;;;;;;;5.38;98.89;101360.78;5080701;28;20024;-63
2021/11/25 03:27:59;;;;;;;65.22;27.80;;;;;;;5.38;98.37;101368.66;5072729;28;20111;-64
2021/11/25 03:30:24;;;;;;;67.25;28.33;;;;;;;5.35;98.59;101365.19;5072747;28;20112;-63
2021/11/25 03:32:50;;;;;;;66.47;28.67;;;;;;;5.33;98.16;101365.22;5072012;28;20028;-64
2021/11/25 03:35:16;;;;;;;67.43;28.67;;;;;;;5.35;98.56;101363.41;5079981;28;20085;-64
2021/11/25 03:37:41;;;;;;;71.65;29.92;;;;;;;5.35;97.94;101354.69;5072983;28;20029;-64
2021/11/25 03:40:08;;;;;;;66.90;28.63;;;;;;;5.34;98.67;101355.56;5072248;28;20029;-64
2021/11/25 03:42:33;;;;;;;73.57;29.33;;;;;;;5.36;98.61;101364.31;5071981;28;20059;-64
2021/11/25 03:44:59;;;;;;;73.45;29.90;;;;;;;5.33;99.15;101353.84;5072654;28;20104;-63
2021/11/25 03:47:24;;;;;;;72.03;29.40;;;;;;;5.31;99.23;101364.38;5079401;28;20039;-64
2021/11/25 03:49:50;;;;;;;65.95;28.65;;;;;;;5.27;98.74;101359.16;5071522;28;20064;-64
2021/11/25 03:52:15;;;;;;;66.70;27.98;;;;;;;5.23;99.10;101351.34;5072053;28;20048;-64
2021/11/25 03:54:41;;;;;;;76.38;29.23;;;;;;;5.22;99.48;101348.75;5071821;28;20058;-64
2021/11/25 03:57:06;;;;;;;69.35;28.58;;;;;;;5.22;99.57;101351.38;5071860;28;20020;-64
2021/11/25 03:59:32;;;;;;;70.88;28.27;;;;;;;5.25;99.04;101352.16;5072176;28;20108;-64
2021/11/25 04:01:58;;;;;;;70.45;29.55;;;;;;;5.29;99.65;101354.78;5072236;28;20024;-63
2021/11/25 04:04:23;;;;;;;72.82;29.45;;;;;;;5.31;99.94;101350.38;5072417;28;20306;-64
2021/11/25 04:06:48;;;;;;;69.00;28.13;;;;;;;5.35;100.00;101352.06;5071601;28;20029;-63
2021/11/25 04:09:13;;;;;;;77.00;29.75;;;;;;;5.30;99.86;101332.88;5071780;28;20100;-64
2021/11/25 04:11:39;;;;;;;69.13;29.50;;;;;;;5.31;100.00;101338.09;5071487;28;20021;-63
2021/11/25 04:14:04;;;;;;;72.13;28.67;;;;;;;5.36;99.74;101344.16;5072318;28;20032;-63
2021/11/25 04:16:31;;;;;;;70.72;28.77;;;;;;;5.37;99.86;101340.63;5052007;28;20040;-65
2021/11/25 04:18:56;;;;;;;76.65;30.23;;;;;;;5.38;99.54;101328.38;5070330;28;20396;-66
2021/11/25 04:21:22;;;;;;;72.93;29.15;;;;;;;5.39;99.69;101332.72;5071011;28;20028;-64
2021/11/25 04:23:48;;;;;;;73.90;30.02;;;;;;;5.38;99.79;101331.00;5072031;28;20072;-64
2021/11/25 04:26:13;;;;;;;79.68;29.95;;;;;;;5.33;100.00;101325.81;5071776;28;20086;-63
2021/11/25 04:28:38;;;;;;;73.38;29.40;;;;;;;5.33;100.00;101333.72;5073081;28;20028;-64
2021/11/25 04:36:32;;;;;;;75.80;28.90;;;;;;;5.35;100.00;101334.53;5072090;28;20209;-64
2021/11/25 04:38:58;;;;;;;76.35;30.05;;;;;;;5.30;99.99;101331.09;5076489;28;20110;-65
2021/11/25 04:41:23;;;;;;;78.28;30.10;;;;;;;5.27;99.98;101330.28;5082021;28;20476;-64
2021/11/25 04:43:49;;;;;;;82.95;30.00;;;;;;;5.19;100.00;101325.16;5071499;28;20036;-64
2021/11/25 04:46:15;;;;;;;79.53;29.38;;;;;;;5.13;100.00;101330.47;5071962;28;20016;-64
2021/11/25 04:48:40;;;;;;;85.05;31.33;;;;;;;5.08;100.00;101322.69;5071506;28;20553;-63
2021/11/25 04:51:06;;;;;;;78.03;29.65;;;;;;;5.08;100.00;101323.53;5073052;28;20033;-63
2021/11/25 04:53:31;;;;;;;84.15;31.27;;;;;;;5.08;100.00;101322.69;5071234;28;20361;-63
2021/11/25 04:55:56;;;;;;;77.07;30.70;;;;;;;5.05;100.00;101320.09;5071953;28;20103;-64
2021/11/25 04:58:22;;;;;;;86.07;31.60;;;;;;;5.05;100.00;101320.09;5071554;28;20032;-64
2021/11/25 05:00:47;;;;;;;84.90;31.77;;;;;;;5.07;100.00;101320.94;5073038;28;20072;-63
2021/11/25 05:03:13;;;;;;;78.05;30.00;;;;;;;5.09;100.00;101319.19;5071361;28;20384;-64
2021/11/25 05:05:39;;;;;;;92.75;31.42;;;;;;;5.11;100.00;101314.75;5071346;28;20491;-64
2021/11/25 05:08:04;;;;;;;83.35;31.33;;;;;;;5.15;100.00;101305.09;5073312;28;20036;-63
2021/11/25 05:10:30;;;;;;;78.63;30.42;;;;;;;5.20;100.00;101298.00;5074210;28;20498;-64
2021/11/25 05:12:56;;;;;;;80.18;30.92;;;;;;;5.26;100.00;101308.41;5074570;28;20043;-64
2021/11/25 05:15:21;;;;;;;87.03;30.77;;;;;;;5.27;100.00;101306.66;5075102;28;20024;-64
2021/11/25 05:17:47;;;;;;;89.45;30.35;;;;;;;5.29;100.00;101297.00;5074480;28;20024;-66
2021/11/25 05:20:14;;;;;;;81.28;31.77;;;;;;;5.30;100.00;101296.97;5074946;28;20074;-62
2021/11/25 05:22:40;;;;;;;83.45;30.27;;;;;;;5.33;100.00;101296.06;5088949;28;20054;-63
2021/11/25 05:25:07;;;;;;;77.80;31.38;;;;;;;5.30;100.00;101289.09;5095145;28;20081;-65
2021/11/25 05:27:33;;;;;;;88.13;31.98;;;;;;;5.29;100.00;101304.88;5078321;28;20028;-66
2021/11/25 05:29:59;;;;;;;81.72;30.92;;;;;;;5.31;100.00;101303.13;5074025;28;20034;-68
2021/11/25 05:32:24;;;;;;;79.82;29.48;;;;;;;5.33;100.00;101306.56;5067124;28;20028;-66
2021/11/25 05:34:49;;;;;;;84.63;32.70;;;;;;;5.31;100.00;101303.13;5071459;28;20036;-65
2021/11/25 05:37:17;;;;;;;84.95;31.20;;;;;;;5.31;100.00;101305.72;5054625;28;20136;-65
2021/11/25 05:39:42;;;;;;;84.72;30.45;;;;;;;5.23;100.00;101311.06;5069100;28;20020;-64
2021/11/25 05:42:08;;;;;;;82.78;30.55;;;;;;;5.19;100.00;101302.41;5075180;28;20078;-62
2021/11/25 05:44:34;;;;;;;88.53;32.25;;;;;;;5.21;100.00;101302.38;5074089;28;20047;-64
2021/11/25 05:47:00;;;;;;;95.22;31.98;;;;;;;5.25;100.00;101301.44;5073988;28;20052;-64
2021/11/25 05:49:25;;;;;;;85.05;32.03;;;;;;;5.29;100.00;101297.84;5073626;28;20419;-64
2021/11/25 05:51:51;;;;;;;93.97;34.83;;;;;;;5.34;100.00;101305.69;5072632;28;20690;-66
2021/11/25 05:54:16;;;;;;;89.38;31.35;;;;;;;5.37;100.00;101305.63;5074477;28;20071;-69
2021/11/25 05:56:42;;;;;;;84.07;30.60;;;;;;;5.41;100.00;101315.22;5074070;28;20028;-64
2021/11/25 05:59:07;;;;;;;89.07;32.17;;;;;;;5.46;100.00;101310.75;5060364;28;20430;-63
2021/11/25 06:01:32;;;;;;;87.55;31.95;;;;;;;5.51;100.00;101302.78;5072485;28;20493;-63
2021/11/25 06:03:58;;;;;;;82.78;32.13;;;;;;;5.50;100.00;101309.78;5050080;28;20041;-64
2021/11/25 06:06:23;;;;;;;84.55;30.05;;;;;;;5.51;100.00;101302.78;5069296;28;20021;-63
2021/11/25 06:08:49;;;;;;;80.13;30.92;;;;;;;5.48;100.00;101289.69;5073273;28;20044;-63
2021/11/25 06:11:16;;;;;;;75.90;30.27;;;;;;;5.46;100.00;101296.72;5065316;28;20021;-64
2021/11/25 06:13:41;;;;;;;72.18;30.17;;;;;;;5.49;100.00;101286.19;5065157;28;20388;-63
2021/11/25 06:16:07;;;;;;;78.45;29.80;;;;;;;5.49;100.00;101278.31;5070994;28;20029;-64
2021/11/25 06:18:32;;;;;;;76.53;29.75;;;;;;;5.48;100.00;101274.78;5057069;28;20068;-62
2021/11/25 06:20:58;;;;;;;75.43;29.70;;;;;;;5.47;100.00;101280.94;5072412;28;20510;-63
2021/11/25 06:23:23;;;;;;;81.65;31.67;;;;;;;5.52;100.00;101278.25;5073083;28;20029;-64
2021/11/25 06:25:49;;;;;;;82.80;31.30;;;;;;;5.47;100.00;101280.06;5074663;28;20028;-64
2021/11/25 06:28:14;;;;;;;83.70;31.15;;;;;;;5.42;100.00;101285.41;5073304;28;20112;-65
2021/11/25 06:30:40;;;;;;;75.15;30.23;;;;;;;5.42;100.00;101280.13;5073155;28;20048;-64
2021/11/25 06:33:05;;;;;;;82.78;30.17;;;;;;;5.37;100.00;101285.50;5071318;28;20112;-62
2021/11/25 06:35:31;;;;;;;84.72;32.45;;;;;;;5.32;100.00;101274.19;5070005;28;20418;-64
2021/11/25 06:37:56;;;;;;;89.97;32.35;;;;;;;5.29;100.00;101279.47;5073284;28;20046;-64
2021/11/25 06:40:28;;;;;;;86.88;31.00;;;;;;;5.31;100.00;101282.09;5074332;28;20060;-66
2021/11/25 06:42:55;;;;;;;76.15;30.63;;;;;;;5.33;100.00;101275.03;5086935;28;20032;-65
2021/11/25 06:45:21;;;;;;;86.85;31.05;;;;;;;5.35;100.00;101266.25;5093599;28;20122;-65
2021/11/25 06:47:47;;;;;;;86.03;30.83;;;;;;;5.40;100.00;101269.66;5044029;28;20358;-64
2021/11/25 06:50:14;;;;;;;83.13;31.95;;;;;;;5.43;100.00;101270.53;5068979;28;20027;-64
2021/11/25 06:52:39;;;;;;;88.43;32.65;;;;;;;5.43;100.00;101262.66;5061393;28;20116;-65
2021/11/25 06:55:07;;;;;;;87.97;31.73;;;;;;;5.44;100.00;101262.59;5059356;28;20104;-64
2021/11/25 06:57:32;;;;;;;85.43;32.42;;;;;;;5.45;100.00;101266.97;5073265;28;20028;-63
2021/11/25 06:59:58;;;;;;;79.07;29.70;;;;;;;5.52;100.00;101271.22;5065089;28;20095;-65
2021/11/25 07:02:23;;;;;;;82.07;30.67;;;;;;;5.56;100.00;101274.66;5059982;28;20052;-65
2021/11/25 07:04:49;;;;;;;76.30;29.58;;;;;;;5.58;100.00;101271.13;5073386;28;20025;-65
2021/11/25 07:07:14;;;;;;;79.30;29.40;;;;;;;5.65;100.00;101271.00;5058336;28;20103;-65
2021/11/25 07:09:39;;;;;;;77.45;29.42;;;;;;;5.68;100.00;101269.22;5052792;28;20025;-65
2021/11/25 07:12:05;;;;;;;78.10;29.38;;;;;;;5.69;100.00;101268.31;5053395;28;20029;-64
2021/11/25 07:14:30;;;;;;;76.07;29.73;;;;;;;5.71;100.00;101263.88;5053391;28;20398;-63
2021/11/25 07:16:57;;;;;;;86.78;33.72;;;;;;;5.74;100.00;101271.72;5052106;28;20465;-63
2021/11/25 07:19:22;;;;;;;74.03;28.90;;;;;;;5.76;100.00;101271.69;5057235;28;20025;-62
2021/11/25 07:21:48;;;;;;;74.72;27.65;;;;;;;5.80;100.00;101273.38;5073092;28;20025;-65
2021/11/25 07:24:13;;;;;;;69.78;26.65;;;;;;;5.84;100.00;101268.94;5065693;28;20037;-64
2021/11/25 07:26:38;;;;;;;68.40;26.58;;;;;;;5.88;100.00;101279.38;5052775;28;20112;-65
2021/11/25 07:29:04;;;;;;;69.65;25.92;;;;;;;5.88;100.00;101276.75;5052434;28;20021;-64
2021/11/25 07:31:29;;;;;;;74.32;27.52;;;;;;;5.87;100.00;101280.25;5033095;28;20037;-64
2021/11/25 07:33:58;;;;;;;69.10;26.55;;;;;;;5.89;100.00;101278.44;5053203;28;20053;-64
2021/11/25 07:36:23;;;;;;;77.20;27.50;;;;;;;5.88;100.00;101282.00;5052587;28;20044;-64
2021/11/25 07:38:49;;;;;;;83.55;30.73;;;;;;;5.90;100.00;101281.97;5052133;28;20054;-62
2021/11/25 07:41:14;;;;;;;71.57;26.73;;;;;;;5.94;100.00;101280.16;5065840;28;20143;-63
2021/11/25 07:43:40;;;;;;;72.72;26.55;;;;;;;5.99;100.00;101275.72;5071313;28;20025;-64
2021/11/25 07:46:05;;;;;;;78.40;27.52;;;;;;;6.01;100.00;101292.31;5067341;28;20025;-64
2021/11/25 07:48:31;;;;;;;76.70;27.13;;;;;;;6.01;100.00;101289.66;5072749;28;20425;-63
2021/11/25 07:50:57;;;;;;;74.90;27.08;;;;;;;6.00;100.00;101288.81;5070572;28;20045;-63
2021/11/25 07:53:22;;;;;;;66.80;26.98;;;;;;;6.06;100.00;101285.19;5069866;28;20539;-65
2021/11/25 07:55:47;;;;;;;71.95;25.88;;;;;;;6.08;100.00;101283.41;5072417;28;20028;-64
2021/11/25 07:58:13;;;;;;;69.95;26.85;;;;;;;6.06;100.00;101282.56;5065094;28;20464;-64
2021/11/25 08:00:39;;;;;;;63.83;25.38;;;;;;;6.12;100.00;101274.56;5070195;28;20466;-64
2021/11/25 08:03:04;;;;;;;61.83;23.15;;;;;;;6.16;100.00;101280.63;5071998;28;20456;-63
2021/11/25 08:05:29;;;;;;;66.38;25.23;;;;;;;6.20;100.00;101282.31;5072472;28;20025;-64
2021/11/25 08:07:57;;;;;;;60.28;22.23;;;;;;;6.24;100.00;101281.38;5062776;28;20368;-62
2021/11/25 08:10:25;;;;;;;59.65;21.02;;;;;;;6.28;100.00;101283.03;5056012;28;20472;-61
2021/11/25 08:12:51;;;;;;;52.67;19.70;;;;;;;6.32;100.00;101287.31;5071758;28;20100;-64
2021/11/25 08:15:17;;;;;;;48.95;19.10;;;;;;;6.36;100.00;101278.47;5061854;28;20598;-64
2021/11/25 08:17:43;;;;;;;45.97;18.88;;;;;;;6.41;100.00;101294.19;5068579;28;20013;-65
2021/11/25 08:20:10;;;;;;;46.22;18.05;;;;;;;6.45;100.00;101292.34;5067842;28;20039;-65
2021/11/25 08:22:35;;;;;;;45.13;16.85;;;;;;;6.50;100.00;101288.72;5067410;28;20036;-62
2021/11/25 08:25:02;;;;;;;49.45;18.35;;;;;;;6.56;100.00;101296.50;5054034;28;20025;-62
2021/11/25 08:27:27;;;;;;;46.40;18.58;;;;;;;6.60;100.00;101297.28;5054937;28;20103;-63
2021/11/25 08:29:53;;;;;;;46.15;18.30;;;;;;;6.60;100.00;101296.41;5064919;28;20104;-63
2021/11/25 08:32:18;;;;;;;48.50;17.40;;;;;;;6.64;100.00;101301.59;5069911;28;20445;-62
2021/11/25 08:34:44;;;;;;;34.78;13.73;;;;;;;6.66;100.00;101306.81;5072328;28;20051;-61
2021/11/25 08:37:09;;;;;;;42.28;15.70;;;;;;;6.73;100.00;101300.53;5071871;28;20124;-62
2021/11/25 08:39:37;;;;;;;38.38;13.05;;;;;;;6.78;100.00;101303.03;5071641;28;20044;-62
2021/11/25 08:42:04;;;;;;;23.17;10.43;;;;;;;6.79;100.00;101299.53;5053669;28;20745;-62
2021/11/25 08:44:30;;;;;;;20.73;6.70;;;;;;;6.79;100.00;101296.88;5060348;28;20032;-63
2021/11/25 08:46:55;;;;;;;18.92;6.75;;;;;;;6.80;100.00;101294.22;5057475;28;20096;-64
2021/11/25 08:49:21;;;;;;;20.23;6.10;;;;;;;6.81;100.00;101289.84;5068965;28;20029;-64
2021/11/25 08:51:47;;;;;;;16.75;5.60;;;;;;;6.81;100.00;101288.06;5063798;28;20036;-64
2021/11/25 08:54:12;;;;;;;13.45;4.00;;;;;;;6.84;100.00;101287.13;5061497;28;20040;-64
2021/11/25 08:56:37;;;;;;;11.75;3.35;;;;;;;6.84;100.00;101285.38;5072384;28;20429;-66
2021/11/25 08:59:03;;;;;;;9.40;2.50;;;;;;;6.88;100.00;101294.06;5075942;28;20464;-63
2021/11/25 09:01:28;;;;;;;13.93;2.70;;;;;;;6.94;100.00;101295.69;5074980;28;20467;-62
2021/11/25 09:03:53;;;;;;;14.52;2.38;;;;;;;6.97;100.00;101295.63;5075621;28;20052;-64
2021/11/25 09:06:19;;;;;;;11.18;2.00;;;;;;;7.05;100.00;101297.19;5069217;28;20481;-62
2021/11/25 09:08:44;;;;;;;7.97;2.33;;;;;;;7.08;100.00;101300.66;5075132;28;20027;-64
2021/11/25 09:11:10;;;;;;;12.15;3.40;;;;;;;7.11;100.00;101301.44;5074395;28;20131;-63
2021/11/25 09:13:36;;;;;;;14.48;3.30;;;;;;;7.12;100.00;101299.66;5067669;28;20087;-63
2021/11/25 09:16:01;;;;;;;17.55;3.03;;;;;;;7.12;100.00;101303.16;5068130;28;20024;-64
2021/11/25 09:18:27;;;;;;;10.40;1.88;;;;;;;7.15;100.00;101308.38;5074035;28;20029;-64
2021/11/25 09:20:52;;;;;;;14.45;2.63;;;;;;;7.16;100.00;101301.31;5073193;28;20032;-65
2021/11/25 09:23:20;;;;;;;13.13;2.78;;;;;;;7.18;100.00;101302.16;5070743;28;20029;-65
2021/11/25 09:25:46;;;;;;;9.80;3.03;;;;;;;7.22;100.00;101306.47;5069110;28;20123;-64
2021/11/25 09:28:16;;;;;;;10.27;2.80;;;;;;;7.22;100.00;101306.47;5075028;28;20028;-65
2021/11/25 09:30:44;;;;;;;12.18;2.50;;;;;;;7.22;100.00;101312.63;5070761;28;20025;-66
2021/11/25 09:33:10;;;;;;;13.05;2.25;;;;;;;7.28;100.00;101305.47;5067946;28;20021;-65
2021/11/25 09:35:36;;;;;;;9.52;2.63;;;;;;;7.33;100.00;101319.41;5062134;28;20091;-65
2021/11/25 09:38:02;;;;;;;16.05;5.95;;;;;;;7.41;100.00;101321.84;5074193;28;20056;-65
2021/11/25 09:40:28;;;;;;;16.85;5.43;;;;;;;7.51;100.00;101308.41;5074016;28;20417;-62
2021/11/25 09:43:00;;;;;;;11.70;3.55;;;;;;;7.69;100.00;101309.69;5073854;28;20028;-62
2021/11/25 09:45:27;;;;;;;14.15;2.65;;;;;;;7.83;100.00;101313.78;5074334;28;20031;-65
2021/11/25 09:47:59;;;;;;;14.30;3.55;;;;;;;8.03;100.00;101308.84;5073948;28;20427;-65
2021/11/25 09:50:27;;;;;;;8.82;2.80;;;;;;;8.27;100.00;101293.22;5074929;28;20051;-64
2021/11/25 09:52:55;;;;;;;9.20;2.70;;;;;;;8.50;100.00;101299.66;5073925;28;20032;-66
2021/11/25 09:55:21;;;;;;;12.73;2.10;;;;;;;8.49;97.82;101298.81;5073571;28;20024;-65
2021/11/25 09:57:46;;;;;;;7.22;1.77;;;;;;;8.57;95.58;101300.34;5074708;28;20035;-65
2021/11/25 10:00:13;;;;;;;8.55;1.98;;;;;;;8.88;95.86;101307.41;5074488;28;20039;-62
2021/11/25 10:02:39;;;;;;;12.68;2.70;;;;;;;9.71;93.38;101304.72;5073675;28;20063;-65
2021/11/25 10:05:05;;;;;;;11.43;2.00;;;;;;;10.43;80.62;101305.78;5074613;28;20494;-62
2021/11/25 10:07:33;;;;;;;8.93;1.50;;;;;;;10.57;79.65;101306.13;5074303;28;20476;-64
2021/11/25 10:10:18;;;;;;;12.20;1.92;;;;;;;10.70;76.43;101314.47;5056231;28;20147;-64
2021/11/25 10:12:46;;;;;;;10.80;2.10;;;;;;;10.91;76.59;101318.09;5083159;28;20020;-63
2021/11/25 10:15:38;;;;;;;5.88;1.45;;;;;;;11.76;75.42;101312.03;5094787;28;20107;-62
2021/11/25 10:18:12;;;;;;;10.02;1.55;;;;;;;12.59;68.59;101306.69;5079832;28;20029;-62
2021/11/25 10:20:42;;;;;;;9.88;2.30;;;;;;;13.02;68.49;101314.44;5036895;28;20033;-62
2021/11/25 10:23:14;;;;;;;5.47;1.60;;;;;;;13.18;64.83;101319.91;5060869;28;20034;-63
2021/11/25 10:25:44;;;;;;;7.80;1.73;;;;;;;13.74;63.92;101318.09;5073229;28;20023;-64
2021/11/25 10:28:57;;;;;;;7.80;1.73;;;;;;;13.91;58.91;101311.91;5074143;28;20059;-62
2021/11/25 10:31:26;;;;;;;8.00;1.58;;;;;;;13.18;60.46;101325.25;4988255;28;20022;-64
2021/11/25 10:36:50;;;;;;;8.27;1.92;;;;;;;11.82;66.04;101323.34;4975576;28;20437;-63
2021/11/25 10:41:56;;;;;;;6.50;1.58;;;;;;;11.02;66.46;101330.94;4969498;28;20520;-65
2021/11/25 10:44:30;;;;;;;15.52;2.60;;;;;;;10.71;67.77;101331.25;4972785;28;20070;-64
2021/11/25 10:47:07;;;;;;;7.95;1.73;;;;;;;10.21;70.44;101322.41;4980404;28;20117;-64
2021/11/25 10:49:32;;;;;;;8.02;1.85;;;;;;;9.93;71.14;101330.44;4973638;28;20078;-63
2021/11/25 10:51:58;;;;;;;11.48;1.67;;;;;;;9.54;71.98;101328.22;4981200;28;20030;-66
2021/11/25 10:54:23;;;;;;;8.98;1.63;;;;;;;9.33;74.25;101336.81;4990871;28;20030;-66
2021/11/25 10:56:53;;;;;;;7.47;1.58;;;;;;;9.20;73.80;101331.97;4983061;28;20069;-66
2021/11/25 10:59:37;;;;;;;19.73;2.40;;;;;;;9.06;73.08;101327.09;4982459;28;20121;-65
2021/11/25 11:02:17;;;;;;;10.32;1.95;;;;;;;8.89;74.20;101333.75;5013330;28;20040;-63
2021/11/25 11:04:44;;;;;;;8.30;1.83;;;;;;;8.90;74.21;101327.56;5073109;28;20031;-64
2021/11/25 11:07:28;;;;;;;12.00;1.85;;;;;;;8.90;74.91;101332.84;5073110;28;20111;-64
2021/11/25 11:09:54;;;;;;;13.93;2.30;;;;;;;8.91;75.10;101331.91;5073028;28;20043;-64
2021/11/25 11:12:45;;;;;;;13.63;1.83;;;;;;;8.91;73.40;101334.56;5071455;28;20024;-63
2021/11/25 11:20:49;;;;;;;9.18;1.50;;;;;;;9.16;73.09;101321.47;5062666;28;20028;-67
2021/11/25 11:23:22;;;;;;;9.82;2.40;;;;;;;9.14;71.02;101322.41;5066964;28;20091;-65
2021/11/25 11:25:50;;;;;;;8.90;2.22;;;;;;;9.25;72.18;101324.75;5060749;28;20067;-66
2021/11/25 11:28:16;;;;;;;9.52;1.92;;;;;;;9.30;72.28;101322.81;5072596;28;20028;-66